createdAt,value
2018-02-22T00:01:09.560Z,72.12
2018-02-22T00:03:37.086Z,72.10
2018-02-22T00:06:04.983Z,72.32
2018-02-22T00:08:32.846Z,72.28
2018-02-22T00:11:00.426Z,72.30
2018-02-22T00:13:27.972Z,72.47
2018-02-22T00:15:55.521Z,72.36
2018-02-22T00:18:23.075Z,72.16
2018-02-22T00:20:50.611Z,72.41
2018-02-22T00:23:19.459Z,72.53
2018-02-22T00:25:47.091Z,71.95
2018-02-22T00:28:14.870Z,72.01
2018-02-22T00:30:42.412Z,72.26
2018-02-22T00:33:09.987Z,72.16
2018-02-22T00:35:37.533Z,72.31
2018-02-22T00:38:05.075Z,72.32
2018-02-22T00:40:32.621Z,72.43
2018-02-22T00:43:00.191Z,72.48
2018-02-22T00:45:27.737Z,72.35
2018-02-22T00:47:55.559Z,72.41
2018-02-22T00:50:23.426Z,72.24
2018-02-22T00:52:51.008Z,72.34
2018-02-22T00:55:18.855Z,72.47
2018-02-22T00:57:46.394Z,72.55
2018-02-22T01:00:13.918Z,72.54
2018-02-22T01:02:41.750Z,72.72
2018-02-22T01:05:09.276Z,72.78
2018-02-22T01:07:36.876Z,72.40
2018-02-22T01:10:04.429Z,72.50
2018-02-22T01:12:31.970Z,72.36
2018-02-22T01:14:59.759Z,72.07
2018-02-22T01:17:27.295Z,72.20
2018-02-22T01:19:55.181Z,71.87
2018-02-22T01:22:23.048Z,72.13
2018-02-22T01:24:50.575Z,71.87
2018-02-22T01:27:18.110Z,72.06
2018-02-22T01:29:45.669Z,71.72
2018-02-22T01:32:13.202Z,71.76
2018-02-22T01:34:40.728Z,72.03
2018-02-22T01:37:08.526Z,72.36
2018-02-22T01:39:36.058Z,72.36
2018-02-22T01:42:03.619Z,72.64
2018-02-22T01:44:31.155Z,72.21
2018-02-22T01:46:58.685Z,72.16
2018-02-22T01:49:26.477Z,72.11
2018-02-22T01:51:54.290Z,72.27
2018-02-22T01:54:22.056Z,72.48
2018-02-22T01:56:49.596Z,72.43
2018-02-22T01:59:17.384Z,72.52
2018-02-22T02:01:44.926Z,72.59
2018-02-22T02:04:13.218Z,72.24
2018-02-22T02:06:40.742Z,72.62
2018-02-22T02:09:08.291Z,72.02
2018-02-22T02:11:35.805Z,72.40
2018-02-22T02:14:03.358Z,72.60
2018-02-22T02:16:30.945Z,72.13
2018-02-22T02:18:58.456Z,72.22
2018-02-22T02:21:26.002Z,72.30
2018-02-22T02:23:53.806Z,72.14
2018-02-22T02:26:21.338Z,72.19
2018-02-22T02:28:48.916Z,72.26
2018-02-22T02:31:16.447Z,72.42
2018-02-22T02:33:44.048Z,72.37
2018-02-22T02:36:11.573Z,72.50
2018-02-22T02:38:39.376Z,72.72
2018-02-22T02:41:06.915Z,72.70
2018-02-22T02:43:34.472Z,72.72
2018-02-22T02:46:02.032Z,72.63
2018-02-22T02:48:29.595Z,72.29
2018-02-22T02:50:57.119Z,71.99
2018-02-22T02:53:24.663Z,71.76
2018-02-22T02:55:52.190Z,71.94
2018-02-22T02:58:19.753Z,71.94
2018-02-22T03:00:47.315Z,72.04
2018-02-22T03:03:14.830Z,72.25
2018-02-22T03:05:42.430Z,72.18
2018-02-22T03:08:09.958Z,72.34
2018-02-22T03:10:37.521Z,72.41
2018-02-22T03:13:05.055Z,72.84
2018-02-22T03:15:32.641Z,72.43
2018-02-22T03:18:00.172Z,72.58
2018-02-22T03:20:28.014Z,72.78
2018-02-22T03:22:55.551Z,72.69
2018-02-22T03:25:23.356Z,72.18
2018-02-22T03:27:51.208Z,72.17
2018-02-22T03:30:18.756Z,72.19
2018-02-22T03:32:46.302Z,72.05
2018-02-22T03:35:13.867Z,71.83
2018-02-22T03:37:41.653Z,71.57
2018-02-22T03:40:09.178Z,71.86
2018-02-22T03:42:36.979Z,72.06
2018-02-22T03:45:04.494Z,71.73
2018-02-22T03:47:32.079Z,71.65
2018-02-22T03:49:59.624Z,71.36
2018-02-22T03:52:27.157Z,71.05
2018-02-22T03:54:54.720Z,71.33
2018-02-22T03:57:22.291Z,71.28
2018-02-22T03:59:50.134Z,70.97
2018-02-22T04:02:17.659Z,71.40
2018-02-22T04:04:45.201Z,71.13
2018-02-22T04:07:12.793Z,70.89
2018-02-22T04:09:40.308Z,71.35
2018-02-22T04:12:07.877Z,71.78
2018-02-22T04:14:35.673Z,71.98
2018-02-22T04:17:03.291Z,72.21
2018-02-22T04:19:30.846Z,72.55
2018-02-22T04:21:58.370Z,72.56
2018-02-22T04:24:25.935Z,72.77
2018-02-22T04:26:53.463Z,72.88
2018-02-22T04:29:20.986Z,72.91
2018-02-22T04:31:48.522Z,72.93
2018-02-22T04:34:16.042Z,73.04
2018-02-22T04:36:43.600Z,73.03
2018-02-22T04:39:11.393Z,73.05
2018-02-22T04:41:38.922Z,72.97
2018-02-22T04:44:06.482Z,72.97
2018-02-22T04:46:34.006Z,73.28
2018-02-22T04:49:01.554Z,73.38
2018-02-22T04:51:29.087Z,73.36
2018-02-22T04:53:56.618Z,73.33
2018-02-22T04:56:24.520Z,72.98
2018-02-22T04:58:52.932Z,73.47
2018-02-22T05:01:20.485Z,73.27
2018-02-22T05:03:48.082Z,73.37
2018-02-22T05:06:15.658Z,73.51
2018-02-22T05:08:43.226Z,73.48
2018-02-22T05:11:10.747Z,73.59
2018-02-22T05:13:38.295Z,74.03
2018-02-22T05:16:05.827Z,74.01
2018-02-22T05:18:33.383Z,74.21
2018-02-22T05:21:00.952Z,74.10
2018-02-22T05:23:28.813Z,74.21
2018-02-22T05:25:56.382Z,74.03
2018-02-22T05:28:23.915Z,74.07
2018-02-22T05:30:51.456Z,73.71
2018-02-22T05:33:18.999Z,73.89
2018-02-22T05:35:46.524Z,74.06
2018-02-22T05:38:14.122Z,74.09
2018-02-22T05:40:41.683Z,74.23
2018-02-22T05:43:09.427Z,74.07
2018-02-22T05:45:36.961Z,74.05
2018-02-22T05:48:04.730Z,74.02
2018-02-22T05:50:33.256Z,74.07
2018-02-22T05:53:00.771Z,74.08
2018-02-22T05:55:28.310Z,74.25
2018-02-22T05:57:55.880Z,74.40
2018-02-22T06:00:23.403Z,74.70
2018-02-22T06:02:51.004Z,74.79
2018-02-22T06:05:18.552Z,74.80
2018-02-22T06:07:46.102Z,74.94
2018-02-22T06:10:13.665Z,74.93
2018-02-22T06:12:41.231Z,75.00
2018-02-22T06:15:08.760Z,75.28
2018-02-22T06:17:36.352Z,75.35
2018-02-22T06:20:03.898Z,75.44
2018-02-22T06:22:31.428Z,75.04
2018-02-22T06:24:59.060Z,74.73
2018-02-22T06:27:26.609Z,74.50
2018-02-22T06:29:54.216Z,74.17
2018-02-22T06:32:21.759Z,74.14
2018-02-22T06:34:49.324Z,73.99
2018-02-22T06:37:16.846Z,73.95
2018-02-22T06:39:44.432Z,73.67
2018-02-22T06:42:11.967Z,73.49
2018-02-22T06:44:39.856Z,73.87
2018-02-22T06:47:07.408Z,73.70
2018-02-22T06:49:34.981Z,73.60
2018-02-22T06:52:02.849Z,73.63
2018-02-22T06:54:30.376Z,73.59
2018-02-22T06:56:57.923Z,73.85
2018-02-22T06:59:25.478Z,73.71
2018-02-22T07:01:52.997Z,73.55
2018-02-22T07:04:20.589Z,73.77
2018-02-22T07:06:48.105Z,73.99
2018-02-22T07:09:15.680Z,73.89
2018-02-22T07:11:43.217Z,73.48
2018-02-22T07:14:10.734Z,73.60
2018-02-22T07:16:38.409Z,73.60
2018-02-22T07:19:06.005Z,73.53
2018-02-22T07:21:33.682Z,73.48
2018-02-22T07:24:01.227Z,73.66
2018-02-22T07:26:29.209Z,73.68
2018-02-22T07:28:56.794Z,73.61
2018-02-22T07:31:24.329Z,73.81
2018-02-22T07:33:51.879Z,73.46
2018-02-22T07:36:19.431Z,73.42
2018-02-22T07:38:47.315Z,73.62
2018-02-22T07:41:14.888Z,73.76
2018-02-22T07:43:42.562Z,73.80
2018-02-22T07:46:10.127Z,73.68
2018-02-22T07:48:37.810Z,73.27
2018-02-22T07:51:06.087Z,72.73
2018-02-22T07:53:34.207Z,72.60
2018-02-22T07:56:01.838Z,72.02
2018-02-22T07:58:30.117Z,72.28
2018-02-22T08:00:59.003Z,71.72
2018-02-22T08:03:26.561Z,71.34
2018-02-22T08:05:54.153Z,69.88
2018-02-22T08:08:21.688Z,70.14
2018-02-22T08:10:49.595Z,69.50
2018-02-22T08:13:17.138Z,69.35
2018-02-22T08:15:45.028Z,69.22
2018-02-22T08:18:12.894Z,69.32
2018-02-22T08:20:40.836Z,68.42
2018-02-22T08:23:08.819Z,68.10
2018-02-22T08:25:36.415Z,68.13
2018-02-22T08:28:04.101Z,68.39
2018-02-22T08:30:31.699Z,68.14
2018-02-22T08:32:59.319Z,68.53
2018-02-22T08:35:26.876Z,67.54
2018-02-22T08:37:54.419Z,66.49
2018-02-22T08:40:22.004Z,65.46
2018-02-22T08:42:49.616Z,65.37
2018-02-22T08:45:17.147Z,65.27
2018-02-22T08:47:44.765Z,65.42
2018-02-22T08:50:12.344Z,65.27
2018-02-22T08:52:39.881Z,65.49
2018-02-22T08:55:07.424Z,65.22
2018-02-22T08:57:35.197Z,64.21
2018-02-22T09:00:02.747Z,64.16
2018-02-22T09:02:30.324Z,64.03
2018-02-22T09:04:57.847Z,63.14
2018-02-22T09:07:25.459Z,60.67
2018-02-22T09:09:53.021Z,60.84
2018-02-22T09:12:20.883Z,60.88
2018-02-22T09:14:48.416Z,61.06
2018-02-22T09:17:15.954Z,61.06
2018-02-22T09:19:43.502Z,60.53
2018-02-22T09:22:11.022Z,58.38
2018-02-22T09:24:38.686Z,57.69
2018-02-22T09:27:06.240Z,57.12
2018-02-22T09:29:33.824Z,55.91
2018-02-22T09:32:01.389Z,56.38
2018-02-22T09:34:29.226Z,55.84
2018-02-22T09:36:57.053Z,56.21
2018-02-22T09:39:24.582Z,55.43
2018-02-22T09:41:52.722Z,54.34
2018-02-22T09:44:20.348Z,53.90
2018-02-22T09:46:48.846Z,54.62
2018-02-22T09:49:16.529Z,54.92
2018-02-22T09:51:44.156Z,53.81
2018-02-22T09:54:11.749Z,54.10
2018-02-22T09:56:39.469Z,53.66
2018-02-22T09:59:07.104Z,53.53
2018-02-22T10:01:35.164Z,52.39
2018-02-22T10:04:02.706Z,52.32
2018-02-22T10:06:30.262Z,53.04
2018-02-22T10:08:57.797Z,50.80
2018-02-22T10:11:25.336Z,50.92
2018-02-22T10:13:52.887Z,49.93
2018-02-22T10:16:20.476Z,49.99
2018-02-22T10:18:48.287Z,49.09
2018-02-22T10:21:15.846Z,50.32
2018-02-22T10:23:43.438Z,48.99
2018-02-22T10:26:10.994Z,48.98
2018-02-22T10:28:38.835Z,48.38
2018-02-22T10:31:06.407Z,47.53
2018-02-22T10:33:33.959Z,47.49
2018-02-22T10:36:01.585Z,46.92
2018-02-22T10:38:29.159Z,46.41
2018-02-22T10:40:56.724Z,45.57
2018-02-22T10:43:24.263Z,45.55
2018-02-22T10:45:51.857Z,44.86
2018-02-22T10:48:19.422Z,45.01
2018-02-22T10:50:47.290Z,44.61
2018-02-22T10:53:14.857Z,44.05
2018-02-22T10:55:42.412Z,44.51
2018-02-22T10:58:09.949Z,44.50
2018-02-22T11:00:43.268Z,44.67
2018-02-22T11:03:10.795Z,44.57
2018-02-22T11:05:38.338Z,43.72
2018-02-22T11:08:05.927Z,44.12
2018-02-22T11:10:33.457Z,44.57
2018-02-22T11:13:01.010Z,42.41
2018-02-22T11:15:28.544Z,42.00
2018-02-22T11:17:56.240Z,41.85
2018-02-22T11:20:23.869Z,41.57
2018-02-22T11:22:51.418Z,41.23
2018-02-22T11:25:18.987Z,40.55
2018-02-22T11:27:46.546Z,40.20
2018-02-22T11:30:14.171Z,39.25
2018-02-22T11:32:41.714Z,39.44
2018-02-22T11:35:09.275Z,39.73
2018-02-22T11:37:36.824Z,40.02
2018-02-22T11:40:04.390Z,40.60
2018-02-22T11:42:31.941Z,40.78
2018-02-22T11:44:59.495Z,40.89
2018-02-22T11:47:27.426Z,40.74
2018-02-22T11:49:54.959Z,40.64
2018-02-22T11:52:22.504Z,39.90
2018-02-22T11:54:50.047Z,40.47
2018-02-22T11:57:17.696Z,39.42
2018-02-22T11:59:45.259Z,38.31
2018-02-22T12:02:12.791Z,38.19
2018-02-22T12:04:40.379Z,37.61
2018-02-22T12:07:07.907Z,36.24
2018-02-22T12:09:35.448Z,37.04
2018-02-22T12:12:02.990Z,37.82
2018-02-22T12:14:30.566Z,37.74
2018-02-22T12:16:58.375Z,38.70
2018-02-22T12:19:25.946Z,39.75
2018-02-22T12:21:53.553Z,39.79
2018-02-22T12:24:21.076Z,41.05
2018-02-22T12:26:49.064Z,40.17
2018-02-22T12:29:16.655Z,39.56
2018-02-22T12:31:45.012Z,40.17
2018-02-22T12:34:12.924Z,40.71
2018-02-22T12:36:40.461Z,41.24
2018-02-22T12:39:08.026Z,41.91
2018-02-22T12:41:35.564Z,41.54
2018-02-22T12:44:03.086Z,42.29
2018-02-22T12:46:30.939Z,42.00
2018-02-22T12:48:58.487Z,41.81
2018-02-22T12:51:26.090Z,42.08
2018-02-22T12:53:53.639Z,42.65
2018-02-22T12:56:21.217Z,43.61
2018-02-22T12:58:48.769Z,43.75
2018-02-22T13:01:16.330Z,43.96
2018-02-22T13:03:43.873Z,44.20
2018-02-22T13:06:11.422Z,44.45
2018-02-22T13:08:39.294Z,44.50
2018-02-22T13:11:07.160Z,44.48
2018-02-22T13:13:35.022Z,44.68
2018-02-22T13:16:02.543Z,44.96
2018-02-22T13:18:30.352Z,44.70
2018-02-22T13:20:57.942Z,45.01
2018-02-22T13:23:25.506Z,44.74
2018-02-22T13:25:53.054Z,44.75
2018-02-22T13:28:20.898Z,44.12
2018-02-22T13:30:48.572Z,44.54
2018-02-22T13:33:28.205Z,44.14
2018-02-22T13:35:55.755Z,44.41
2018-02-22T13:38:35.051Z,45.18
2018-02-22T13:41:02.726Z,44.87
2018-02-22T13:43:30.260Z,45.20
2018-02-22T13:45:57.814Z,45.29
2018-02-22T13:48:25.419Z,45.21
2018-02-22T13:51:05.044Z,45.38
2018-02-22T13:53:32.869Z,45.33
2018-02-22T13:56:00.402Z,44.59
2018-02-22T13:58:27.959Z,44.42
2018-02-22T14:01:07.247Z,44.54
2018-02-22T14:03:34.797Z,44.32
2018-02-22T14:06:02.339Z,43.36
2018-02-22T14:08:41.917Z,42.31
2018-02-22T14:11:09.482Z,43.05
2018-02-22T14:13:37.026Z,42.97
2018-02-22T14:16:04.586Z,42.83
2018-02-22T14:18:32.534Z,43.85
2018-02-22T14:21:00.176Z,44.89
2018-02-22T14:23:27.717Z,45.56
2018-02-22T14:25:55.242Z,46.08
2018-02-22T14:28:22.832Z,46.12
2018-02-22T14:30:50.596Z,47.80
2018-02-22T14:33:18.520Z,48.38
2018-02-22T14:35:46.051Z,48.45
2018-02-22T14:38:13.611Z,48.38
2018-02-22T14:40:41.143Z,47.86
2018-02-22T14:43:08.670Z,46.40
2018-02-22T14:45:36.521Z,46.15
2018-02-22T14:48:04.054Z,45.71
2018-02-22T14:50:31.612Z,45.92
2018-02-22T14:52:59.142Z,46.03
2018-02-22T14:55:26.700Z,46.55
2018-02-22T14:57:54.236Z,47.11
2018-02-22T15:00:21.786Z,48.19
2018-02-22T15:02:49.374Z,48.42
2018-02-22T15:05:16.910Z,48.28
2018-02-22T15:07:44.523Z,48.31
2018-02-22T15:10:12.103Z,47.30
2018-02-22T15:12:39.641Z,47.66
2018-02-22T15:15:07.197Z,47.99
2018-02-22T15:17:34.742Z,48.73
2018-02-22T15:20:02.264Z,49.11
2018-02-22T15:22:29.889Z,48.77
2018-02-22T15:24:57.503Z,48.68
2018-02-22T15:27:25.059Z,49.11
2018-02-22T15:29:52.599Z,49.29
2018-02-22T15:32:20.207Z,49.74
2018-02-22T15:34:47.819Z,49.92
2018-02-22T15:37:15.356Z,49.91
2018-02-22T15:39:42.958Z,50.32
2018-02-22T15:42:10.472Z,50.15
2018-02-22T15:44:38.004Z,50.07
2018-02-22T15:47:05.573Z,50.49
2018-02-22T15:49:33.108Z,50.01
2018-02-22T15:52:00.714Z,49.92
2018-02-22T15:54:28.236Z,49.98
2018-02-22T15:56:55.785Z,50.36
2018-02-22T15:59:23.648Z,50.03
2018-02-22T16:01:51.174Z,50.87
2018-02-22T16:04:18.734Z,51.12
2018-02-22T16:06:46.271Z,51.63
2018-02-22T16:09:13.812Z,51.79
2018-02-22T16:11:41.317Z,55.34
2018-02-22T16:14:09.269Z,52.11
2018-02-22T16:16:36.838Z,53.03
2018-02-22T16:19:04.737Z,53.76
2018-02-22T16:21:32.266Z,53.07
2018-02-22T16:23:59.894Z,52.99
2018-02-22T16:26:27.462Z,52.82
2018-02-22T16:28:55.045Z,52.20
2018-02-22T16:31:22.592Z,52.71
2018-02-22T16:33:50.125Z,52.12
2018-02-22T16:36:18.266Z,52.23
2018-02-22T16:38:45.954Z,52.42
2018-02-22T16:41:13.495Z,53.00
2018-02-22T16:43:41.376Z,53.15
2018-02-22T16:46:09.389Z,53.51
2018-02-22T16:48:37.399Z,54.18
2018-02-22T16:51:05.890Z,54.39
2018-02-22T16:53:33.439Z,54.39
2018-02-22T16:56:01.020Z,54.76
2018-02-22T16:58:28.949Z,54.76
2018-02-22T17:00:56.509Z,54.76
2018-02-22T17:05:57.971Z,55.03
2018-02-22T17:08:25.752Z,54.60
2018-02-22T17:10:53.323Z,54.30
2018-02-22T17:13:20.865Z,54.30
2018-02-22T17:15:48.438Z,54.60
2018-02-22T17:18:16.035Z,54.66
2018-02-22T17:20:43.645Z,54.54
2018-02-22T17:23:11.213Z,54.74
2018-02-22T17:25:38.189Z,54.70
2018-02-22T17:28:11.241Z,54.56
2018-02-22T17:30:44.156Z,54.16
2018-02-22T17:33:11.768Z,54.54
2018-02-22T17:38:47.515Z,55.32
2018-02-22T17:41:18.668Z,55.38
2018-02-22T17:43:46.241Z,55.58
2018-02-22T17:46:13.964Z,55.74
2018-02-22T17:48:41.498Z,55.72
2018-02-22T17:51:09.048Z,55.74
2018-02-22T17:53:36.682Z,55.87
2018-02-22T17:56:04.271Z,55.91
2018-02-22T17:58:31.851Z,55.80
2018-02-22T18:00:59.454Z,55.89
2018-02-22T18:03:27.134Z,55.74
2018-02-22T18:05:54.792Z,56.01
2018-02-22T18:08:22.343Z,56.13
2018-02-22T18:10:49.970Z,56.04
2018-02-22T18:13:17.496Z,55.97
2018-02-22T18:15:45.238Z,55.98
2018-02-22T18:18:13.587Z,56.34
2018-02-22T18:20:41.184Z,56.31
2018-02-22T18:23:08.809Z,56.34
2018-02-22T18:25:36.379Z,56.59
2018-02-22T18:28:04.273Z,57.18
2018-02-22T18:30:31.828Z,57.44
2018-02-22T18:32:59.371Z,57.66
2018-02-22T18:35:27.257Z,57.84
2018-02-22T18:37:59.704Z,57.86
2018-02-22T18:40:32.869Z,57.33
2018-02-22T18:43:00.618Z,57.42
2018-02-22T18:45:28.175Z,57.21
2018-02-22T18:47:55.700Z,57.37
2018-02-22T18:50:23.571Z,57.40
2018-02-22T18:52:51.097Z,57.38
2018-02-22T18:55:18.729Z,57.58
2018-02-22T18:57:46.304Z,57.99
2018-02-22T19:00:14.121Z,57.41
2018-02-22T19:02:41.713Z,57.31
2018-02-22T19:05:09.293Z,57.19
2018-02-22T19:07:37.235Z,57.23
2018-02-22T19:10:04.829Z,57.04
2018-02-22T19:12:32.367Z,57.24
2018-02-22T19:15:00.177Z,56.99
2018-02-22T19:17:27.816Z,57.19
2018-02-22T19:19:55.755Z,57.38
2018-02-22T19:22:23.309Z,57.37
2018-02-22T19:24:51.268Z,57.13
2018-02-22T19:27:18.796Z,57.22
2018-02-22T19:29:46.591Z,57.16
2018-02-22T19:32:14.456Z,57.27
2018-02-22T19:34:42.350Z,56.46
2018-02-22T19:37:10.196Z,56.41
2018-02-22T19:39:37.862Z,56.36
2018-02-22T19:42:05.453Z,56.61
2018-02-22T19:44:33.283Z,56.67
2018-02-22T19:47:00.844Z,56.60
2018-02-22T19:49:28.831Z,57.04
2018-02-22T19:51:56.392Z,56.83
2018-02-22T19:54:23.976Z,56.60
2018-02-22T19:56:51.523Z,56.33
2018-02-22T19:59:19.119Z,56.49
2018-02-22T20:01:46.657Z,56.35
2018-02-22T20:04:14.362Z,55.93
2018-02-22T20:06:42.040Z,56.19
2018-02-22T20:09:09.599Z,56.00
2018-02-22T20:11:37.187Z,56.12
2018-02-22T20:14:05.051Z,55.97
2018-02-22T20:16:32.831Z,56.12
2018-02-22T20:19:00.824Z,56.31
2018-02-22T20:21:28.651Z,56.55
2018-02-22T20:23:56.260Z,56.23
2018-02-22T20:26:23.803Z,55.87
2018-02-22T20:28:51.401Z,55.73
2018-02-22T20:31:19.009Z,55.68
2018-02-22T20:33:46.634Z,56.03
2018-02-22T20:36:14.226Z,55.67
2018-02-22T20:38:42.557Z,55.59
2018-02-22T20:41:10.644Z,56.03
2018-02-22T20:43:38.682Z,55.47
2018-02-22T20:46:06.274Z,55.15
2018-02-22T20:48:34.795Z,55.16
2018-02-22T20:51:02.965Z,54.79
2018-02-22T20:53:31.266Z,53.95
2018-02-22T20:55:59.334Z,54.53
2018-02-22T20:58:27.644Z,54.26
2018-02-22T21:00:55.309Z,53.98
2018-02-22T21:03:26.471Z,53.98
2018-02-22T21:05:54.672Z,53.26
2018-02-22T21:08:22.334Z,52.95
2018-02-22T21:10:50.964Z,53.05
2018-02-22T21:13:20.662Z,53.25
2018-02-22T21:15:48.291Z,53.60
2018-02-22T21:18:15.825Z,52.88
2018-02-22T21:20:44.120Z,52.34
2018-02-22T21:23:12.378Z,52.26
2018-02-22T21:25:42.137Z,52.64
2018-02-22T21:28:10.994Z,52.39
2018-02-22T21:30:38.812Z,51.67
2018-02-22T21:35:44.275Z,51.09
2018-02-22T21:38:12.051Z,51.57
2018-02-22T21:40:39.695Z,51.78
2018-02-22T21:43:07.538Z,51.99
2018-02-22T21:45:35.087Z,51.90
2018-02-22T21:48:02.732Z,52.16
2018-02-22T21:50:30.450Z,52.21
2018-02-22T21:52:57.996Z,51.86
2018-02-22T21:55:25.634Z,52.21
2018-02-22T21:57:53.199Z,52.40
2018-02-22T22:00:20.858Z,52.77
2018-02-22T22:02:48.405Z,53.14
2018-02-22T22:05:15.930Z,53.45
2018-02-22T22:07:43.756Z,53.54
2018-02-22T22:10:11.280Z,53.61
2018-02-22T22:12:38.821Z,53.94
2018-02-22T22:15:06.353Z,53.66
2018-02-22T22:17:33.905Z,53.27
2018-02-22T22:20:01.440Z,53.22
2018-02-22T22:22:29.218Z,53.28
2018-02-22T22:24:56.755Z,53.50
2018-02-22T22:27:24.284Z,53.80
2018-02-22T22:29:51.831Z,53.85
2018-02-22T22:32:19.346Z,52.79
2018-02-22T22:34:46.904Z,51.98
2018-02-22T22:37:14.427Z,51.65
2018-02-22T22:39:42.247Z,51.05
2018-02-22T22:42:09.786Z,51.37
2018-02-22T22:44:37.305Z,50.76
2018-02-22T22:47:04.862Z,50.11
2018-02-22T22:49:32.379Z,48.54
2018-02-22T22:51:59.950Z,49.00
2018-02-22T22:54:27.468Z,49.47
2018-02-22T22:56:54.999Z,48.72
2018-02-22T22:59:22.599Z,47.96
2018-02-22T23:01:50.142Z,48.33
2018-02-22T23:04:17.779Z,48.99
2018-02-22T23:06:45.316Z,48.45
2018-02-22T23:09:13.179Z,48.33
2018-02-22T23:11:40.727Z,48.34
2018-02-22T23:14:08.252Z,48.15
2018-02-22T23:16:36.167Z,48.33
2018-02-22T23:19:03.945Z,48.04
2018-02-22T23:21:31.485Z,48.12
2018-02-22T23:23:59.369Z,48.78
2018-02-22T23:26:26.895Z,48.23
2018-02-22T23:28:54.464Z,48.72
2018-02-22T23:31:22.257Z,48.02
2018-02-22T23:33:49.794Z,47.89
2018-02-22T23:36:17.582Z,47.48
2018-02-22T23:38:46.554Z,47.86
2018-02-22T23:41:20.081Z,47.95
2018-02-22T23:43:47.643Z,47.67
2018-02-22T23:46:15.243Z,47.63
2018-02-22T23:48:43.162Z,48.42
2018-02-22T23:51:11.042Z,48.10
2018-02-22T23:53:38.591Z,47.99
2018-02-22T23:56:06.111Z,47.98
2018-02-22T23:58:33.633Z,48.35
